Time;durP1;ratioP1;P1;durP2;ratioP2;P2;SDS_P1;SDS_P2;PMS_P1;PMS_P2;Temp;Humidity;BMP_temperature;BMP_pressure;BME280_temperature;BME280_humidity;BME280_pressure;Samples;Min_cycle;Max_cycle;Signal;HPM_P1;HPM_P2
2023/08/28 00:00:43;;;;;;;7.53;7.03;;;;;;;;;;5015333;28;20214;-83
2023/08/28 00:03:08;;;;;;;7.73;7.07;;;;;;;;;;5020231;28;20679;-84
2023/08/28 00:05:35;;;;;;;7.43;6.83;;;;;;;;;;5005247;28;20595;-85
2023/08/28 00:08:04;;;;;;;7.03;6.53;;;;;;;;;;5022405;28;20225;-84
2023/08/28 00:10:32;;;;;;;7.37;6.77;;;;;;;;;;5019725;28;20726;-86
2023/08/28 00:12:59;;;;;;;7.90;7.30;;;;;;;;;;5032849;28;20310;-83
2023/08/28 00:15:25;;;;;;;7.37;6.77;;;;;;;;;;5017801;28;20759;-84
2023/08/28 00:17:50;;;;;;;7.73;7.13;;;;;;;;;;5018005;28;20248;-87
2023/08/28 00:20:16;;;;;;;7.80;7.10;;;;;;;;;;5020735;28;20207;-86
2023/08/28 00:22:42;;;;;;;8.03;7.27;;;;;;;;;;5023482;28;20210;-83
2023/08/28 00:25:10;;;;;;;8.43;7.20;;;;;;;;;;5054006;28;20210;-84
2023/08/28 00:27:36;;;;;;;7.60;7.00;;;;;;;;;;5033450;28;20218;-82
2023/08/28 00:30:03;;;;;;;7.63;7.03;;;;;;;;;;5038048;28;20211;-86
2023/08/28 00:32:29;;;;;;;7.10;6.60;;;;;;;;;;5012609;28;20222;-84
2023/08/28 00:34:58;;;;;;;7.40;6.87;;;;;;;;;;5047889;28;20249;-83
2023/08/28 00:37:25;;;;;;;7.70;7.20;;;;;;;;;;5015426;28;20219;-84
2023/08/28 00:39:51;;;;;;;7.47;6.97;;;;;;;;;;5043879;28;20234;-82
2023/08/28 00:42:21;;;;;;;8.23;7.37;;;;;;;;;;5063131;28;20213;-85
2023/08/28 00:44:46;;;;;;;8.03;7.53;;;;;;;;;;5043693;28;20233;-82
2023/08/28 00:47:14;;;;;;;7.80;7.27;;;;;;;;;;5039093;28;20199;-83
2023/08/28 00:49:42;;;;;;;8.80;8.00;;;;;;;;;;5046201;28;20222;-86
2023/08/28 00:52:08;;;;;;;7.77;7.17;;;;;;;;;;5036835;28;20227;-86
2023/08/28 00:54:36;;;;;;;9.20;8.50;;;;;;;;;;5020431;28;20226;-85
2023/08/28 00:57:01;;;;;;;9.00;8.40;;;;;;;;;;5008858;28;20210;-84
2023/08/28 00:59:30;;;;;;;8.13;7.53;;;;;;;;;;5019326;28;20225;-82
2023/08/28 01:01:55;;;;;;;8.70;8.00;;;;;;;;;;5024755;28;20255;-80
2023/08/28 01:04:24;;;;;;;7.80;7.30;;;;;;;;;;5015059;28;20307;-83
2023/08/28 01:07:13;;;;;;;8.57;7.87;;;;;;;;;;5022938;28;20214;-86
2023/08/28 01:09:44;;;;;;;8.07;7.47;;;;;;;;;;5035133;28;20230;-85
2023/08/28 01:12:21;;;;;;;9.43;8.40;;;;;;;;;;5049779;28;20246;-85
2023/08/28 01:14:58;;;;;;;8.90;8.23;;;;;;;;;;5056430;28;20236;-86
2023/08/28 01:17:24;;;;;;;8.23;7.63;;;;;;;;;;5057284;28;20241;-83
2023/08/28 01:19:50;;;;;;;8.30;7.53;;;;;;;;;;5007065;28;20317;-86
2023/08/28 01:22:27;;;;;;;8.13;7.53;;;;;;;;;;5013063;28;20692;-83
2023/08/28 01:25:04;;;;;;;8.90;8.20;;;;;;;;;;5030242;28;20252;-85
2023/08/28 01:27:31;;;;;;;9.07;8.47;;;;;;;;;;5015322;28;20225;-83
2023/08/28 01:30:07;;;;;;;8.67;7.93;;;;;;;;;;5026807;28;20215;-81
2023/08/28 01:32:34;;;;;;;8.80;8.20;;;;;;;;;;5047728;28;20211;-86
2023/08/28 01:35:05;;;;;;;8.83;8.23;;;;;;;;;;5026044;28;20202;-86
2023/08/28 01:37:54;;;;;;;9.47;8.73;;;;;;;;;;5025377;28;20709;-85
2023/08/28 01:40:21;;;;;;;9.43;8.70;;;;;;;;;;5033989;28;20740;-84
2023/08/28 01:42:49;;;;;;;9.47;8.70;;;;;;;;;;5019734;28;20206;-82
2023/08/28 01:45:15;;;;;;;9.70;8.90;;;;;;;;;;5019919;28;20215;-85
2023/08/28 01:47:45;;;;;;;10.27;9.23;;;;;;;;;;5033047;28;20688;-83
2023/08/28 01:50:13;;;;;;;10.40;9.60;;;;;;;;;;5012260;28;20219;-82
2023/08/28 01:52:39;;;;;;;9.77;9.03;;;;;;;;;;5015972;28;20262;-85
2023/08/28 01:55:08;;;;;;;10.70;9.90;;;;;;;;;;5020348;28;20227;-83
2023/08/28 01:57:40;;;;;;;10.77;9.77;;;;;;;;;;5014451;28;20276;-85
2023/08/28 02:00:08;;;;;;;10.93;10.03;;;;;;;;;;5035137;28;20215;-84
2023/08/28 02:02:42;;;;;;;10.13;9.13;;;;;;;;;;5039121;28;20368;-84
2023/08/28 02:05:08;;;;;;;11.13;10.23;;;;;;;;;;5018426;28;20709;-84
2023/08/28 02:07:33;;;;;;;10.90;9.90;;;;;;;;;;5030405;28;20478;-82
2023/08/28 02:09:59;;;;;;;10.90;10.10;;;;;;;;;;5027205;28;20215;-84
2023/08/28 02:12:29;;;;;;;10.47;9.77;;;;;;;;;;5016350;28;20222;-83
2023/08/28 02:14:57;;;;;;;11.23;10.43;;;;;;;;;;5036856;28;20214;-84
2023/08/28 02:17:25;;;;;;;12.20;11.03;;;;;;;;;;5018491;28;20234;-84
2023/08/28 02:19:52;;;;;;;11.17;10.37;;;;;;;;;;5050018;28;20589;-86
2023/08/28 02:22:18;;;;;;;11.77;10.63;;;;;;;;;;5030653;28;20215;-85
2023/08/28 02:24:46;;;;;;;12.43;11.43;;;;;;;;;;5019835;28;20214;-85
2023/08/28 02:27:14;;;;;;;12.60;11.43;;;;;;;;;;5036291;28;20593;-84
2023/08/28 02:29:40;;;;;;;12.50;11.40;;;;;;;;;;4997400;28;20208;-85
2023/08/28 02:32:09;;;;;;;11.53;10.63;;;;;;;;;;4996292;28;20223;-83
2023/08/28 02:34:37;;;;;;;11.83;10.97;;;;;;;;;;5017937;28;20234;-84
2023/08/28 02:37:02;;;;;;;12.23;11.10;;;;;;;;;;5019673;28;20363;-84
2023/08/28 02:39:28;;;;;;;12.70;11.70;;;;;;;;;;5012028;28;20287;-85
2023/08/28 02:41:53;;;;;;;12.63;11.60;;;;;;;;;;5016599;28;20218;-85
2023/08/28 02:44:19;;;;;;;12.93;11.67;;;;;;;;;;5014770;28;20211;-85
2023/08/28 02:46:44;;;;;;;13.37;12.27;;;;;;;;;;5039371;28;20284;-82
2023/08/28 02:49:10;;;;;;;13.23;12.03;;;;;;;;;;5020891;28;20502;-85
2023/08/28 02:51:38;;;;;;;12.97;12.03;;;;;;;;;;5033877;28;20310;-85
2023/08/28 02:54:06;;;;;;;14.13;12.77;;;;;;;;;;5018986;28;20219;-84
2023/08/28 02:56:38;;;;;;;13.43;12.43;;;;;;;;;;5037555;28;21180;-84
2023/08/28 02:59:03;;;;;;;13.73;12.53;;;;;;;;;;5015896;28;20230;-84
2023/08/28 03:01:34;;;;;;;14.30;13.20;;;;;;;;;;5060809;28;20230;-84
2023/08/28 03:04:05;;;;;;;14.63;13.43;;;;;;;;;;5055213;28;20214;-85
2023/08/28 03:06:37;;;;;;;14.40;13.30;;;;;;;;;;5032413;28;20223;-84
2023/08/28 03:09:14;;;;;;;14.17;12.93;;;;;;;;;;5031645;28;20288;-85
2023/08/28 03:11:44;;;;;;;14.83;13.73;;;;;;;;;;5056698;28;20298;-85
2023/08/28 03:14:15;;;;;;;14.70;13.50;;;;;;;;;;5036626;28;20276;-84
2023/08/28 03:16:40;;;;;;;14.53;13.43;;;;;;;;;;5018603;28;20618;-87
2023/08/28 03:19:08;;;;;;;16.37;13.60;;;;;;;;;;5020861;28;20246;-83
2023/08/28 03:21:34;;;;;;;15.40;14.23;;;;;;;;;;5020796;28;20635;-85
2023/08/28 03:24:00;;;;;;;15.07;13.83;;;;;;;;;;5019879;28;20260;-85
2023/08/28 03:26:29;;;;;;;15.30;14.10;;;;;;;;;;5020305;28;20219;-86
2023/08/28 03:28:57;;;;;;;15.70;14.33;;;;;;;;;;5022753;28;20216;-86
2023/08/28 03:31:22;;;;;;;15.23;13.93;;;;;;;;;;5018527;28;20226;-85
2023/08/28 03:33:48;;;;;;;16.17;14.83;;;;;;;;;;5035310;28;20888;-83
2023/08/28 03:36:13;;;;;;;16.30;15.10;;;;;;;;;;5032891;28;20219;-79
2023/08/28 03:38:39;;;;;;;16.53;15.07;;;;;;;;;;5048938;28;20223;-85
2023/08/28 03:41:07;;;;;;;15.33;14.03;;;;;;;;;;5022987;28;20218;-83
2023/08/28 03:43:33;;;;;;;15.67;14.23;;;;;;;;;;5030364;28;20258;-83
2023/08/28 03:46:00;;;;;;;16.33;14.97;;;;;;;;;;5055703;28;20296;-78
2023/08/28 03:48:29;;;;;;;16.37;15.03;;;;;;;;;;5028914;28;20223;-77
2023/08/28 03:50:54;;;;;;;16.50;15.20;;;;;;;;;;5019334;28;20212;-79
2023/08/28 03:53:22;;;;;;;17.10;15.40;;;;;;;;;;5016957;28;20235;-80
2023/08/28 03:55:50;;;;;;;17.40;15.83;;;;;;;;;;5055817;28;20215;-80
2023/08/28 03:58:20;;;;;;;16.97;15.57;;;;;;;;;;5013250;28;20284;-79
2023/08/28 04:04:33;;;;;;;17.07;15.40;;;;;;;;;;5065518;28;20385;-78
2023/08/28 04:07:01;;;;;;;17.00;15.70;;;;;;;;;;5036236;28;20211;-78
2023/08/28 04:09:29;;;;;;;16.60;15.23;;;;;;;;;;5000182;28;20237;-79
2023/08/28 04:11:56;;;;;;;17.17;15.63;;;;;;;;;;5039450;28;21157;-79
2023/08/28 04:14:22;;;;;;;17.37;15.80;;;;;;;;;;5035227;28;20670;-79
2023/08/28 04:16:55;;;;;;;17.70;16.30;;;;;;;;;;5024677;28;20212;-78
2023/08/28 04:19:20;;;;;;;17.03;15.63;;;;;;;;;;5032642;28;20223;-78
2023/08/28 04:21:52;;;;;;;16.90;15.47;;;;;;;;;;5023435;28;20237;-78
2023/08/28 04:24:25;;;;;;;16.73;15.33;;;;;;;;;;5028447;28;20345;-79
2023/08/28 04:26:53;;;;;;;17.10;15.70;;;;;;;;;;5048286;28;20223;-78
2023/08/28 04:29:23;;;;;;;16.53;15.23;;;;;;;;;;5028170;28;20222;-78
2023/08/28 04:31:50;;;;;;;16.17;14.70;;;;;;;;;;5034560;28;20292;-77
2023/08/28 04:34:18;;;;;;;16.60;15.23;;;;;;;;;;5062759;28;20212;-78
2023/08/28 04:36:44;;;;;;;16.40;14.90;;;;;;;;;;5036469;28;20230;-77
2023/08/28 04:39:09;;;;;;;16.97;15.67;;;;;;;;;;5016869;28;20395;-78
2023/08/28 04:41:35;;;;;;;17.30;15.57;;;;;;;;;;5049617;28;20223;-80
2023/08/28 04:44:01;;;;;;;17.03;15.63;;;;;;;;;;5033273;28;20289;-80
2023/08/28 04:46:28;;;;;;;17.30;15.90;;;;;;;;;;5026103;28;20704;-78
2023/08/28 04:48:56;;;;;;;17.50;15.93;;;;;;;;;;5028260;28;20249;-78
2023/08/28 04:51:23;;;;;;;17.10;15.60;;;;;;;;;;5029217;28;20219;-79
2023/08/28 04:53:50;;;;;;;16.03;14.80;;;;;;;;;;5031275;28;20256;-78
2023/08/28 04:56:18;;;;;;;15.93;14.63;;;;;;;;;;5019251;28;20215;-79
2023/08/28 04:58:44;;;;;;;16.07;14.77;;;;;;;;;;5038177;28;20222;-79
2023/08/28 05:01:10;;;;;;;14.77;13.63;;;;;;;;;;5035313;28;20215;-80
2023/08/28 05:03:35;;;;;;;16.37;14.77;;;;;;;;;;5041535;28;20228;-78
2023/08/28 05:06:02;;;;;;;16.63;15.13;;;;;;;;;;5017936;28;20255;-80
2023/08/28 05:08:28;;;;;;;16.07;14.47;;;;;;;;;;5046751;28;20218;-78
2023/08/28 05:10:54;;;;;;;15.70;14.30;;;;;;;;;;5045309;28;20226;-79
2023/08/28 05:13:19;;;;;;;17.93;16.10;;;;;;;;;;5020975;28;20207;-79
2023/08/28 05:15:45;;;;;;;16.97;15.57;;;;;;;;;;5054436;28;20449;-79
2023/08/28 05:18:11;;;;;;;15.73;14.33;;;;;;;;;;5072392;28;20215;-80
2023/08/28 05:20:46;;;;;;;16.90;15.57;;;;;;;;;;5046637;28;20266;-79
2023/08/28 05:23:23;;;;;;;17.60;15.93;;;;;;;;;;5039403;28;20254;-79
2023/08/28 05:26:08;;;;;;;16.90;15.50;;;;;;;;;;5047220;28;20242;-79
2023/08/28 05:28:39;;;;;;;16.47;14.97;;;;;;;;;;5054873;28;20282;-80
2023/08/28 05:31:04;;;;;;;16.43;15.03;;;;;;;;;;5031012;28;20364;-80
2023/08/28 05:33:30;;;;;;;17.13;15.70;;;;;;;;;;5011672;28;20231;-81
2023/08/28 05:35:57;;;;;;;17.53;15.90;;;;;;;;;;5053342;28;20245;-80
2023/08/28 05:38:23;;;;;;;16.47;15.07;;;;;;;;;;5034508;28;20676;-79
2023/08/28 05:40:48;;;;;;;17.13;15.63;;;;;;;;;;5056977;28;20497;-80
2023/08/28 05:43:14;;;;;;;16.67;15.13;;;;;;;;;;5039410;28;20214;-80
2023/08/28 05:45:41;;;;;;;16.00;14.50;;;;;;;;;;5037928;28;20258;-79
2023/08/28 05:48:10;;;;;;;17.60;15.80;;;;;;;;;;5012988;28;20219;-81
2023/08/28 05:50:36;;;;;;;17.80;15.97;;;;;;;;;;5027425;28;20587;-80
2023/08/28 05:53:06;;;;;;;18.30;16.63;;;;;;;;;;5007585;28;20675;-80
2023/08/28 05:55:32;;;;;;;17.17;15.50;;;;;;;;;;5032977;28;20275;-80
2023/08/28 05:58:01;;;;;;;17.20;15.57;;;;;;;;;;5021083;28;20595;-80
2023/08/28 06:00:27;;;;;;;16.10;14.77;;;;;;;;;;5031011;28;20222;-79
2023/08/28 06:02:52;;;;;;;18.10;16.20;;;;;;;;;;5037478;28;20349;-81
2023/08/28 06:05:18;;;;;;;17.47;15.73;;;;;;;;;;4999438;28;20771;-80
2023/08/28 06:07:44;;;;;;;16.10;14.60;;;;;;;;;;5070234;28;20234;-79
2023/08/28 06:10:18;;;;;;;15.93;14.40;;;;;;;;;;5035092;28;20227;-80
2023/08/28 06:12:47;;;;;;;16.07;14.77;;;;;;;;;;5024633;28;20237;-80
2023/08/28 06:15:18;;;;;;;15.43;14.13;;;;;;;;;;5012790;28;20308;-79
2023/08/28 06:17:48;;;;;;;15.67;14.47;;;;;;;;;;5056345;28;20230;-80
2023/08/28 06:20:16;;;;;;;15.27;14.00;;;;;;;;;;5008304;28;20315;-79
2023/08/28 06:22:42;;;;;;;15.07;13.77;;;;;;;;;;5040377;28;20230;-82
2023/08/28 06:25:08;;;;;;;15.60;14.40;;;;;;;;;;5051393;28;20230;-79
2023/08/28 06:27:38;;;;;;;15.77;14.20;;;;;;;;;;5033979;28;20794;-78
2023/08/28 06:30:06;;;;;;;14.30;13.10;;;;;;;;;;5071332;28;20220;-80
2023/08/28 06:32:35;;;;;;;14.53;13.20;;;;;;;;;;5039574;28;20223;-80
2023/08/28 06:35:04;;;;;;;14.43;13.23;;;;;;;;;;5021673;28;20231;-80
2023/08/28 06:37:29;;;;;;;14.17;13.07;;;;;;;;;;5073169;28;20314;-80
2023/08/28 06:39:57;;;;;;;13.95;12.75;;;;;;;;;;5021334;28;20776;-78
2023/08/28 06:42:25;;;;;;;14.30;13.00;;;;;;;;;;5037877;28;20227;-80
2023/08/28 06:44:53;;;;;;;15.30;13.83;;;;;;;;;;5049842;28;20242;-79
2023/08/28 06:47:18;;;;;;;14.03;12.73;;;;;;;;;;5040446;28;20223;-80
2023/08/28 06:49:46;;;;;;;14.17;13.03;;;;;;;;;;5016870;28;20721;-79
2023/08/28 06:52:12;;;;;;;14.37;13.07;;;;;;;;;;5031247;28;20265;-79
2023/08/28 06:54:37;;;;;;;14.68;13.38;;;;;;;;;;5017746;28;20235;-79
2023/08/28 06:57:03;;;;;;;14.73;13.43;;;;;;;;;;5004954;28;20219;-77
2023/08/28 06:59:31;;;;;;;14.87;13.57;;;;;;;;;;5065906;28;20237;-77
2023/08/28 07:01:56;;;;;;;13.90;12.65;;;;;;;;;;5028663;28;20208;-77
2023/08/28 07:04:22;;;;;;;13.83;12.37;;;;;;;;;;5011470;28;20236;-78
2023/08/28 07:06:48;;;;;;;13.40;12.20;;;;;;;;;;5050971;28;20280;-78
2023/08/28 07:09:13;;;;;;;14.02;12.55;;;;;;;;;;5036681;28;20675;-77
2023/08/28 07:11:39;;;;;;;13.03;11.73;;;;;;;;;;5036121;28;20230;-80
2023/08/28 07:14:05;;;;;;;12.68;11.48;;;;;;;;;;5036007;28;20709;-79
2023/08/28 07:16:31;;;;;;;11.85;10.77;;;;;;;;;;5030346;28;20233;-78
2023/08/28 07:18:56;;;;;;;11.35;10.55;;;;;;;;;;5036064;28;20214;-80
2023/08/28 07:21:22;;;;;;;12.82;11.60;;;;;;;;;;5037013;28;21370;-79
2023/08/28 07:23:50;;;;;;;12.05;10.95;;;;;;;;;;5031507;28;20215;-81
2023/08/28 07:26:16;;;;;;;11.02;10.20;;;;;;;;;;5013866;28;20247;-79
2023/08/28 07:28:42;;;;;;;11.00;10.10;;;;;;;;;;5045815;28;20229;-79
2023/08/28 07:31:10;;;;;;;10.77;9.88;;;;;;;;;;5029125;28;20698;-80
2023/08/28 07:33:37;;;;;;;10.68;9.88;;;;;;;;;;5029408;28;20644;-79
2023/08/28 07:36:05;;;;;;;9.90;9.07;;;;;;;;;;5019158;28;20759;-78
2023/08/28 07:38:38;;;;;;;11.52;8.93;;;;;;;;;;5029101;28;20227;-78
2023/08/28 07:41:03;;;;;;;10.35;8.50;;;;;;;;;;5003796;28;20319;-79
2023/08/28 07:43:29;;;;;;;8.60;7.90;;;;;;;;;;5054233;28;20238;-80
2023/08/28 07:45:55;;;;;;;8.68;7.85;;;;;;;;;;5029392;28;20226;-81
2023/08/28 07:48:23;;;;;;;7.72;7.13;;;;;;;;;;5051479;28;20210;-80
2023/08/28 07:50:49;;;;;;;8.55;7.95;;;;;;;;;;5011366;28;20307;-78
2023/08/28 07:53:14;;;;;;;8.75;8.15;;;;;;;;;;5013413;28;20207;-79
2023/08/28 07:55:40;;;;;;;7.90;7.32;;;;;;;;;;5033450;28;20227;-76
2023/08/28 07:58:09;;;;;;;7.25;6.65;;;;;;;;;;5034305;28;20880;-79
2023/08/28 08:00:43;;;;;;;7.35;6.75;;;;;;;;;;5027725;28;20645;-79
2023/08/28 08:03:08;;;;;;;7.07;6.47;;;;;;;;;;5035036;28;20211;-77
2023/08/28 08:05:34;;;;;;;6.93;6.32;;;;;;;;;;5009371;28;20238;-80
2023/08/28 08:07:59;;;;;;;7.03;6.43;;;;;;;;;;5037202;28;20692;-79
2023/08/28 08:10:27;;;;;;;5.50;5.10;;;;;;;;;;5032433;28;20305;-79
2023/08/28 08:12:53;;;;;;;6.95;4.90;;;;;;;;;;5016114;28;20576;-80
2023/08/28 08:15:21;;;;;;;5.85;5.30;;;;;;;;;;5012116;28;20221;-79
2023/08/28 08:17:47;;;;;;;5.85;5.30;;;;;;;;;;5018249;28;20750;-81
2023/08/28 08:20:12;;;;;;;6.43;5.80;;;;;;;;;;5018654;28;20298;-79
2023/08/28 08:22:42;;;;;;;5.40;4.72;;;;;;;;;;5030751;28;20226;-81
2023/08/28 08:25:09;;;;;;;5.47;4.95;;;;;;;;;;5006374;28;20222;-80
2023/08/28 08:27:41;;;;;;;7.60;4.47;;;;;;;;;;5048725;28;20261;-78
2023/08/28 08:30:07;;;;;;;4.95;4.43;;;;;;;;;;5020560;28;20218;-78
2023/08/28 08:32:32;;;;;;;4.85;4.38;;;;;;;;;;5016947;28;20223;-80
2023/08/28 08:34:59;;;;;;;5.82;4.07;;;;;;;;;;5037782;28;20245;-79
2023/08/28 08:37:28;;;;;;;4.47;4.07;;;;;;;;;;5031006;28;20218;-80
2023/08/28 08:39:54;;;;;;;4.60;3.30;;;;;;;;;;5020769;28;20807;-82
2023/08/28 08:42:19;;;;;;;3.95;2.90;;;;;;;;;;5022713;28;20325;-81
2023/08/28 08:44:45;;;;;;;3.50;2.92;;;;;;;;;;5024419;28;20310;-81
2023/08/28 08:47:11;;;;;;;3.08;2.40;;;;;;;;;;5016047;28;20208;-80
2023/08/28 08:49:38;;;;;;;2.97;2.15;;;;;;;;;;5014225;28;20758;-79
2023/08/28 08:52:10;;;;;;;3.05;1.85;;;;;;;;;;5036446;28;20602;-80
2023/08/28 08:54:41;;;;;;;3.10;2.00;;;;;;;;;;5049692;28;20223;-80
2023/08/28 08:57:24;;;;;;;3.42;2.00;;;;;;;;;;5033030;28;20253;-79
2023/08/28 08:59:50;;;;;;;3.15;1.50;;;;;;;;;;5032747;28;20233;-81
2023/08/28 09:02:19;;;;;;;2.75;1.58;;;;;;;;;;5031858;28;20211;-78
2023/08/28 09:04:44;;;;;;;2.83;1.70;;;;;;;;;;5030115;28;20261;-79
2023/08/28 09:07:10;;;;;;;8.50;1.40;;;;;;;;;;5021740;28;20229;-79
2023/08/28 09:09:38;;;;;;;2.90;1.52;;;;;;;;;;5016608;28;20683;-80
2023/08/28 09:12:06;;;;;;;2.13;1.35;;;;;;;;;;5035565;28;20207;-80
2023/08/28 09:14:34;;;;;;;1.67;1.10;;;;;;;;;;5013834;28;20230;-80
2023/08/28 09:17:00;;;;;;;2.20;1.23;;;;;;;;;;5034049;28;20650;-79
2023/08/28 09:19:26;;;;;;;1.67;1.30;;;;;;;;;;5000267;28;20223;-79
2023/08/28 09:21:54;;;;;;;3.40;1.50;;;;;;;;;;5016954;28;20568;-82
2023/08/28 09:24:22;;;;;;;2.47;1.08;;;;;;;;;;5049705;28;20234;-81
2023/08/28 09:26:54;;;;;;;0.90;0.85;;;;;;;;;;5036568;28;20234;-79
2023/08/28 09:29:23;;;;;;;2.10;1.05;;;;;;;;;;5015219;28;20230;-80
2023/08/28 09:32:00;;;;;;;2.90;1.45;;;;;;;;;;5010491;28;20227;-79
2023/08/28 09:34:39;;;;;;;1.42;1.23;;;;;;;;;;5029750;28;20612;-80
2023/08/28 09:37:09;;;;;;;2.05;0.90;;;;;;;;;;5039649;28;20272;-81
2023/08/28 09:39:40;;;;;;;1.10;0.88;;;;;;;;;;5019538;28;20689;-80
2023/08/28 09:42:06;;;;;;;1.23;0.90;;;;;;;;;;5027272;28;20215;-80
2023/08/28 09:44:36;;;;;;;1.42;1.08;;;;;;;;;;5015624;28;20234;-80
2023/08/28 09:47:02;;;;;;;1.95;1.15;;;;;;;;;;5034328;28;20245;-80
2023/08/28 09:49:30;;;;;;;0.85;0.70;;;;;;;;;;5045951;28;20266;-79
2023/08/28 09:51:57;;;;;;;2.20;0.90;;;;;;;;;;5048408;28;20763;-81
2023/08/28 09:54:22;;;;;;;1.27;1.08;;;;;;;;;;5040325;28;20218;-79
2023/08/28 09:56:48;;;;;;;0.95;0.70;;;;;;;;;;5048580;28;20230;-80
2023/08/28 09:59:16;;;;;;;1.58;0.80;;;;;;;;;;5016167;28;20211;-80
2023/08/28 10:01:44;;;;;;;3.75;0.80;;;;;;;;;;5010114;28;20234;-79
2023/08/28 10:04:10;;;;;;;0.70;0.70;;;;;;;;;;5043387;28;20687;-78
2023/08/28 10:06:49;;;;;;;3.28;0.80;;;;;;;;;;5030648;28;20230;-81
2023/08/28 10:09:18;;;;;;;1.10;0.70;;;;;;;;;;5051192;28;20226;-78
2023/08/28 10:11:45;;;;;;;1.60;0.77;;;;;;;;;;5022704;28;20273;-79
2023/08/28 10:14:10;;;;;;;0.95;0.85;;;;;;;;;;5023204;28;20289;-79
2023/08/28 10:16:46;;;;;;;1.08;0.70;;;;;;;;;;5045113;28;20227;-80
2023/08/28 10:19:34;;;;;;;1.50;0.80;;;;;;;;;;5031724;28;20210;-79
2023/08/28 10:21:59;;;;;;;3.15;0.60;;;;;;;;;;5054169;28;20279;-79
2023/08/28 10:24:28;;;;;;;1.48;0.60;;;;;;;;;;5037933;28;20242;-78
2023/08/28 10:26:56;;;;;;;1.10;0.77;;;;;;;;;;5022236;28;20562;-82
2023/08/28 10:29:23;;;;;;;4.32;1.10;;;;;;;;;;5036863;28;20222;-83
2023/08/28 10:31:49;;;;;;;1.33;0.77;;;;;;;;;;5039512;28;20235;-85
2023/08/28 10:34:14;;;;;;;1.27;0.63;;;;;;;;;;5036954;28;20267;-87
2023/08/28 10:36:40;;;;;;;1.67;0.80;;;;;;;;;;5047984;28;20226;-82
2023/08/28 10:39:05;;;;;;;1.27;1.10;;;;;;;;;;5040963;28;20226;-86
2023/08/28 10:41:31;;;;;;;1.88;1.00;;;;;;;;;;5004388;28;20227;-86
2023/08/28 10:43:57;;;;;;;1.08;0.90;;;;;;;;;;5025710;28;20207;-83
2023/08/28 10:46:27;;;;;;;1.92;0.80;;;;;;;;;;5053483;28;20251;-86
2023/08/28 10:48:57;;;;;;;1.02;0.63;;;;;;;;;;5019632;28;20249;-84
2023/08/28 10:51:32;;;;;;;1.70;0.60;;;;;;;;;;5020370;28;20227;-85
2023/08/28 10:54:12;;;;;;;1.13;0.70;;;;;;;;;;5042007;28;20275;-85
2023/08/28 10:56:38;;;;;;;3.08;0.75;;;;;;;;;;5037479;28;20227;-86
2023/08/28 10:59:24;;;;;;;1.52;0.60;;;;;;;;;;5051810;28;20202;-86
2023/08/28 11:01:54;;;;;;;1.00;0.70;;;;;;;;;;5060194;28;20769;-85
2023/08/28 11:04:23;;;;;;;2.03;0.88;;;;;;;;;;5057792;28;20233;-83
2023/08/28 11:06:49;;;;;;;1.17;0.73;;;;;;;;;;5024384;28;20231;-85
2023/08/28 11:09:29;;;;;;;0.98;0.70;;;;;;;;;;5020467;28;20230;-85
2023/08/28 11:12:00;;;;;;;0.75;0.60;;;;;;;;;;5068205;28;20719;-86
2023/08/28 11:14:56;;;;;;;1.00;0.70;;;;;;;;;;5056469;28;20252;-86
2023/08/28 11:17:25;;;;;;;1.08;0.70;;;;;;;;;;5024416;28;20221;-86
2023/08/28 11:19:54;;;;;;;1.75;0.80;;;;;;;;;;5039621;28;20223;-86
2023/08/28 11:22:31;;;;;;;1.40;0.73;;;;;;;;;;5055166;28;20219;-88
2023/08/28 11:25:04;;;;;;;3.67;0.80;;;;;;;;;;5056111;28;20615;-85
2023/08/28 11:27:36;;;;;;;1.20;0.70;;;;;;;;;;5038067;28;20223;-84
2023/08/28 11:30:05;;;;;;;1.42;0.95;;;;;;;;;;5047394;28;20265;-86
2023/08/28 11:32:36;;;;;;;1.23;0.80;;;;;;;;;;5019905;28;20226;-85
2023/08/28 11:35:06;;;;;;;1.17;0.70;;;;;;;;;;5038238;28;20235;-85
2023/08/28 11:37:40;;;;;;;1.20;0.90;;;;;;;;;;5022888;28;20227;-84
2023/08/28 11:40:09;;;;;;;2.25;0.90;;;;;;;;;;5018831;28;20297;-85
2023/08/28 11:42:35;;;;;;;0.85;0.77;;;;;;;;;;5039987;28;20223;-86
2023/08/28 11:45:01;;;;;;;1.33;0.73;;;;;;;;;;5038175;28;20224;-87
2023/08/28 11:47:30;;;;;;;0.65;0.60;;;;;;;;;;5041735;28;20223;-79
2023/08/28 11:49:56;;;;;;;1.23;0.65;;;;;;;;;;5054043;28;20246;-79
2023/08/28 11:52:24;;;;;;;2.10;0.70;;;;;;;;;;5013474;28;20246;-80
2023/08/28 11:54:59;;;;;;;3.42;0.60;;;;;;;;;;5013932;28;20227;-82
2023/08/28 11:57:26;;;;;;;2.55;0.60;;;;;;;;;;5033171;28;20756;-78
2023/08/28 11:59:56;;;;;;;1.15;0.57;;;;;;;;;;5029517;28;20269;-78
2023/08/28 12:02:24;;;;;;;0.75;0.57;;;;;;;;;;5029086;28;20310;-80
2023/08/28 12:04:49;;;;;;;1.00;0.60;;;;;;;;;;5013079;28;20357;-78
2023/08/28 12:07:19;;;;;;;1.08;0.50;;;;;;;;;;5035845;28;20219;-79
2023/08/28 12:09:45;;;;;;;1.00;0.60;;;;;;;;;;5030297;28;20226;-79
2023/08/28 12:12:12;;;;;;;0.70;0.50;;;;;;;;;;5037058;28;20226;-79
2023/08/28 12:14:40;;;;;;;1.33;0.70;;;;;;;;;;5011855;28;20227;-79
2023/08/28 12:17:06;;;;;;;1.70;0.80;;;;;;;;;;5032756;28;20233;-79
2023/08/28 12:19:34;;;;;;;1.55;0.70;;;;;;;;;;5021879;28;20226;-78
2023/08/28 12:22:05;;;;;;;1.20;0.50;;;;;;;;;;5040031;28;20219;-79
2023/08/28 12:24:31;;;;;;;0.90;0.57;;;;;;;;;;5014530;28;20239;-78
2023/08/28 12:26:56;;;;;;;1.08;0.57;;;;;;;;;;5053655;28;20215;-78
2023/08/28 12:29:25;;;;;;;1.50;0.77;;;;;;;;;;5043341;28;20249;-79
2023/08/28 12:32:05;;;;;;;1.20;0.52;;;;;;;;;;5016020;28;20211;-77
2023/08/28 12:34:31;;;;;;;1.90;0.70;;;;;;;;;;5035896;28;20240;-80
2023/08/28 12:37:03;;;;;;;1.17;0.60;;;;;;;;;;5021703;28;20215;-77
2023/08/28 12:39:29;;;;;;;1.25;0.73;;;;;;;;;;5038343;28;20668;-79
2023/08/28 12:41:57;;;;;;;1.67;0.93;;;;;;;;;;5029323;28;20219;-79
2023/08/28 12:44:23;;;;;;;1.50;0.73;;;;;;;;;;5034426;28;20222;-79
2023/08/28 12:46:49;;;;;;;2.65;0.85;;;;;;;;;;5032209;28;20227;-79
2023/08/28 12:49:18;;;;;;;0.60;0.60;;;;;;;;;;5037367;28;20207;-79
2023/08/28 12:51:44;;;;;;;0.55;0.55;;;;;;;;;;5031068;28;20222;-79
2023/08/28 12:54:12;;;;;;;1.52;0.70;;;;;;;;;;5063197;28;20222;-78
2023/08/28 12:56:43;;;;;;;1.13;0.70;;;;;;;;;;5064938;28;20252;-78
2023/08/28 12:59:08;;;;;;;3.83;0.60;;;;;;;;;;5056779;28;20742;-80
2023/08/28 13:01:36;;;;;;;1.80;0.85;;;;;;;;;;5051658;28;20223;-79
2023/08/28 13:04:02;;;;;;;0.93;0.80;;;;;;;;;;5033081;28;20230;-79
2023/08/28 13:06:27;;;;;;;1.10;0.80;;;;;;;;;;5014314;28;20214;-80
2023/08/28 13:08:53;;;;;;;0.88;0.55;;;;;;;;;;5010457;28;20260;-80
2023/08/28 13:11:23;;;;;;;6.05;0.80;;;;;;;;;;5003254;28;20207;-79
2023/08/28 13:13:50;;;;;;;1.02;0.80;;;;;;;;;;5025279;28;20242;-78
2023/08/28 13:16:16;;;;;;;0.40;0.40;;;;;;;;;;5040640;28;20215;-78
2023/08/28 13:18:44;;;;;;;1.00;0.70;;;;;;;;;;5031052;28;20711;-78
2023/08/28 13:21:17;;;;;;;1.30;0.70;;;;;;;;;;5011270;28;20245;-78
2023/08/28 13:23:43;;;;;;;1.95;0.80;;;;;;;;;;5011274;28;20226;-78
2023/08/28 13:26:11;;;;;;;0.90;0.70;;;;;;;;;;5052457;28;20228;-79
2023/08/28 13:28:37;;;;;;;0.73;0.52;;;;;;;;;;5037060;28;20230;-79
2023/08/28 13:31:09;;;;;;;0.93;0.80;;;;;;;;;;5032045;28;20860;-79
2023/08/28 13:33:35;;;;;;;2.45;0.80;;;;;;;;;;5030191;28;20235;-79
2023/08/28 13:36:06;;;;;;;0.60;0.60;;;;;;;;;;5049126;28;20238;-80
2023/08/28 13:38:31;;;;;;;1.17;0.60;;;;;;;;;;5051544;28;20226;-78
2023/08/28 13:41:00;;;;;;;0.75;0.57;;;;;;;;;;5023220;28;20215;-78
2023/08/28 13:43:26;;;;;;;1.05;0.60;;;;;;;;;;5048971;28;20227;-80
2023/08/28 13:45:51;;;;;;;0.68;0.60;;;;;;;;;;5032021;28;20326;-77
2023/08/28 13:48:20;;;;;;;1.33;0.70;;;;;;;;;;5054708;28;20226;-81
2023/08/28 13:50:48;;;;;;;0.60;0.60;;;;;;;;;;5053022;28;20226;-81
2023/08/28 13:53:14;;;;;;;1.52;0.70;;;;;;;;;;5051455;28;20242;-82
2023/08/28 13:55:40;;;;;;;2.78;0.50;;;;;;;;;;5065190;28;20242;-79
2023/08/28 13:58:10;;;;;;;4.18;0.70;;;;;;;;;;5033847;28;20219;-80
2023/08/28 14:00:35;;;;;;;1.45;0.70;;;;;;;;;;5048884;28;20385;-81
2023/08/28 14:03:01;;;;;;;0.73;0.45;;;;;;;;;;5011871;28;20597;-80
2023/08/28 14:05:27;;;;;;;1.52;0.63;;;;;;;;;;5016126;28;20238;-81
2023/08/28 14:07:55;;;;;;;1.77;1.10;;;;;;;;;;5026778;28;20238;-80
2023/08/28 14:10:22;;;;;;;3.63;1.10;;;;;;;;;;5031511;28;22501;-80
2023/08/28 14:12:52;;;;;;;2.60;1.08;;;;;;;;;;5049582;28;20606;-80
2023/08/28 14:15:20;;;;;;;1.15;0.70;;;;;;;;;;5032659;28;20271;-81
2023/08/28 14:17:45;;;;;;;0.77;0.50;;;;;;;;;;5062474;28;20238;-81
2023/08/28 14:20:12;;;;;;;1.48;0.70;;;;;;;;;;5014894;28;20305;-80
2023/08/28 14:22:37;;;;;;;0.75;0.50;;;;;;;;;;5025422;28;20250;-80
2023/08/28 14:25:04;;;;;;;2.15;0.93;;;;;;;;;;5015253;28;20241;-79
2023/08/28 14:27:30;;;;;;;3.55;1.10;;;;;;;;;;5026553;28;20222;-79
2023/08/28 14:29:59;;;;;;;5.88;1.10;;;;;;;;;;5046455;28;20227;-78
2023/08/28 14:32:27;;;;;;;1.40;0.80;;;;;;;;;;5061749;28;20238;-78
2023/08/28 14:34:53;;;;;;;1.00;0.60;;;;;;;;;;5033763;28;20250;-79
2023/08/28 14:37:19;;;;;;;0.90;0.60;;;;;;;;;;5062211;28;20211;-81
2023/08/28 14:39:49;;;;;;;1.77;0.80;;;;;;;;;;5053971;28;20216;-79
2023/08/28 14:42:14;;;;;;;2.33;0.90;;;;;;;;;;5017304;28;20707;-80